createdAt,value
2022-12-27T00:02:09.877Z,145.15
2022-12-27T00:04:55.818Z,142.75
2022-12-27T00:07:42.887Z,144.80
2022-12-27T00:10:29.053Z,154.35
2022-12-27T00:13:15.086Z,162.93
2022-12-27T00:16:09.638Z,181.85
2022-12-27T00:18:56.120Z,187.27
2022-12-27T00:21:42.418Z,163.38
2022-12-27T00:24:28.580Z,170.52
2022-12-27T00:27:14.624Z,175.02
2022-12-27T00:30:00.873Z,168.65
2022-12-27T00:32:46.787Z,157.70
2022-12-27T00:35:32.611Z,170.38
2022-12-27T00:38:18.950Z,167.80
2022-12-27T00:41:05.050Z,177.32
2022-12-27T00:43:50.845Z,173.20
2022-12-27T00:46:36.750Z,176.73
2022-12-27T00:49:22.587Z,167.38
2022-12-27T00:52:08.422Z,171.50
2022-12-27T00:54:54.258Z,166.02
2022-12-27T00:57:40.120Z,158.07
2022-12-27T01:00:27.703Z,168.80
2022-12-27T01:03:14.045Z,178.20
2022-12-27T01:06:11.396Z,174.93
2022-12-27T01:08:57.800Z,157.00
2022-12-27T01:11:43.777Z,159.82
2022-12-27T01:14:29.587Z,160.27
2022-12-27T01:17:15.626Z,155.55
2022-12-27T01:20:01.654Z,148.18
2022-12-27T01:22:47.780Z,149.23
2022-12-27T01:25:33.560Z,149.68
2022-12-27T01:28:19.397Z,169.13
2022-12-27T01:31:10.814Z,134.55
2022-12-27T01:34:00.540Z,145.93
2022-12-27T01:36:46.597Z,143.35
2022-12-27T01:39:32.466Z,124.63
2022-12-27T01:42:37.910Z,141.15
2022-12-27T01:45:30.615Z,149.75
2022-12-27T01:48:18.743Z,204.35
2022-12-27T01:51:05.360Z,156.57
2022-12-27T01:53:53.152Z,137.82
2022-12-27T01:56:39.537Z,134.00
2022-12-27T01:59:25.590Z,130.90
2022-12-27T02:02:11.836Z,152.35
2022-12-27T02:04:58.764Z,112.57
2022-12-27T02:08:08.244Z,124.00
2022-12-27T02:10:55.711Z,109.32
2022-12-27T02:13:44.911Z,104.13
2022-12-27T02:16:30.959Z,111.57
2022-12-27T02:19:37.015Z,110.35
2022-12-27T02:23:10.337Z,108.35
2022-12-27T02:26:12.089Z,103.90
2022-12-27T02:28:57.945Z,87.43
2022-12-27T02:32:11.518Z,109.50
2022-12-27T02:35:14.109Z,96.03
2022-12-27T02:38:06.334Z,94.70
2022-12-27T02:41:12.483Z,103.32
2022-12-27T02:44:17.333Z,93.70
2022-12-27T02:47:22.927Z,104.18
2022-12-27T02:50:29.584Z,96.60
2022-12-27T02:53:19.693Z,95.68
2022-12-27T02:56:53.342Z,92.60
2022-12-27T02:59:59.135Z,176.23
2022-12-27T03:03:10.516Z,251.73
2022-12-27T03:06:40.115Z,76.45
2022-12-27T03:09:47.724Z,76.53
2022-12-27T03:13:04.377Z,82.93
2022-12-27T03:15:59.462Z,62.13
2022-12-27T03:19:07.285Z,64.85
2022-12-27T03:22:11.977Z,62.63
2022-12-27T03:25:16.561Z,66.70
2022-12-27T03:28:25.244Z,69.85
2022-12-27T03:31:46.466Z,80.47
2022-12-27T03:34:38.363Z,73.72
2022-12-27T03:37:49.166Z,75.70
2022-12-27T03:41:04.249Z,73.05
2022-12-27T03:43:51.747Z,72.07
2022-12-27T03:46:39.092Z,77.55
2022-12-27T03:50:13.199Z,71.82
2022-12-27T03:53:21.768Z,80.35
2022-12-27T03:56:08.478Z,77.40
2022-12-27T03:58:54.925Z,71.90
2022-12-27T04:01:42.469Z,78.75
2022-12-27T04:04:28.630Z,84.20
2022-12-27T04:07:15.100Z,80.35
2022-12-27T04:10:19.933Z,76.25
2022-12-27T04:13:24.710Z,100.80
2022-12-27T04:16:29.383Z,73.38
2022-12-27T04:19:34.441Z,82.38
2022-12-27T04:22:38.892Z,72.97
2022-12-27T04:25:43.393Z,72.45
2022-12-27T04:28:47.689Z,72.97
2022-12-27T04:31:54.899Z,72.95
2022-12-27T04:34:44.012Z,70.32
2022-12-27T04:37:29.961Z,66.60
2022-12-27T04:40:45.119Z,65.47
2022-12-27T04:43:49.341Z,69.63
2022-12-27T04:46:53.926Z,67.05
2022-12-27T04:49:59.217Z,74.35
2022-12-27T04:53:03.926Z,75.28
2022-12-27T04:55:49.838Z,71.05
2022-12-27T04:58:35.784Z,67.32
2022-12-27T05:01:40.250Z,64.38
2022-12-27T05:04:26.329Z,82.43
2022-12-27T05:07:32.334Z,61.42
2022-12-27T05:10:37.137Z,62.33
2022-12-27T05:13:41.734Z,54.08
2022-12-27T05:16:30.708Z,56.17
2022-12-27T05:19:16.783Z,53.25
2022-12-27T05:22:21.055Z,64.25
2022-12-27T05:25:25.666Z,62.83
2022-12-27T05:28:12.895Z,54.25
2022-12-27T05:31:05.449Z,59.80
2022-12-27T05:33:52.141Z,57.97
2022-12-27T05:36:38.089Z,51.80
2022-12-27T05:39:23.847Z,51.97
2022-12-27T05:42:09.691Z,48.80
2022-12-27T05:44:55.557Z,51.22
2022-12-27T05:47:41.673Z,53.17
2022-12-27T05:50:27.994Z,51.03
2022-12-27T05:53:28.464Z,50.60
2022-12-27T05:56:19.721Z,56.05
2022-12-27T05:59:08.091Z,50.15
2022-12-27T06:01:54.463Z,47.55
2022-12-27T06:04:40.640Z,52.50
2022-12-27T06:07:26.483Z,59.72
2022-12-27T06:10:12.586Z,60.33
2022-12-27T06:13:00.415Z,62.67
2022-12-27T06:15:46.380Z,63.42
2022-12-27T06:18:34.073Z,64.28
2022-12-27T06:21:21.908Z,68.70
2022-12-27T06:24:07.993Z,61.25
2022-12-27T06:26:53.909Z,67.63
2022-12-27T06:29:39.640Z,78.85
2022-12-27T06:32:25.491Z,76.30
2022-12-27T06:35:11.335Z,72.88
2022-12-27T06:37:57.539Z,74.57
2022-12-27T06:40:43.468Z,85.15
2022-12-27T06:43:29.247Z,76.75
2022-12-27T06:46:18.495Z,82.85
2022-12-27T06:49:04.721Z,89.25
2022-12-27T06:51:55.820Z,87.88
2022-12-27T06:54:45.581Z,86.82
2022-12-27T06:57:31.213Z,99.32
2022-12-27T07:00:17.954Z,107.28
2022-12-27T07:03:04.445Z,122.47
2022-12-27T07:05:50.091Z,105.28
2022-12-27T07:08:36.460Z,107.82
2022-12-27T07:11:22.606Z,91.90
2022-12-27T07:14:09.765Z,81.25
2022-12-27T07:16:55.653Z,80.00
2022-12-27T07:19:41.986Z,78.78
2022-12-27T07:22:28.067Z,115.25
2022-12-27T07:25:14.288Z,106.60
2022-12-27T07:28:00.117Z,213.93
2022-12-27T07:30:45.919Z,102.78
2022-12-27T07:33:31.957Z,87.53
2022-12-27T07:36:20.493Z,102.88
2022-12-27T07:39:07.246Z,180.02
2022-12-27T07:41:53.456Z,90.57
2022-12-27T07:44:39.358Z,122.18
2022-12-27T07:47:25.406Z,223.10
2022-12-27T07:50:11.286Z,100.10
2022-12-27T07:52:58.487Z,88.50
2022-12-27T07:55:47.098Z,92.18
2022-12-27T07:58:43.165Z,91.32
2022-12-27T08:01:50.637Z,99.10
2022-12-27T08:04:38.305Z,77.43
2022-12-27T08:07:25.358Z,82.45
2022-12-27T08:10:11.296Z,81.43
2022-12-27T08:12:57.389Z,80.80
2022-12-27T08:15:44.160Z,73.65
2022-12-27T08:18:30.253Z,81.72
2022-12-27T08:21:16.869Z,84.50
2022-12-27T08:24:02.942Z,95.55
2022-12-27T08:26:48.752Z,97.35
2022-12-27T08:29:34.694Z,99.85
2022-12-27T08:32:20.568Z,90.72
2022-12-27T08:35:41.738Z,91.85
2022-12-27T08:38:13.479Z,128.00
2022-12-27T08:40:59.443Z,103.95
2022-12-27T08:43:45.190Z,115.28
2022-12-27T08:46:31.316Z,104.70
2022-12-27T08:49:17.339Z,111.50
2022-12-27T08:52:03.200Z,107.90
2022-12-27T08:54:49.098Z,110.15
2022-12-27T08:57:34.859Z,109.57
2022-12-27T09:00:20.608Z,99.47
2022-12-27T09:03:06.632Z,102.93
2022-12-27T09:05:52.820Z,122.65
2022-12-27T09:08:39.341Z,117.82
2022-12-27T09:11:31.315Z,115.20
2022-12-27T09:14:17.311Z,133.33
2022-12-27T09:17:03.462Z,114.63
2022-12-27T09:19:50.350Z,119.13
2022-12-27T09:22:36.289Z,121.28
2022-12-27T09:25:22.215Z,114.78
2022-12-27T09:28:09.355Z,122.50
2022-12-27T09:30:55.685Z,116.55
2022-12-27T09:33:42.106Z,124.03
2022-12-27T09:36:29.599Z,122.82
2022-12-27T09:39:17.250Z,127.57
2022-12-27T09:42:49.849Z,127.32
2022-12-27T09:45:41.772Z,130.30
2022-12-27T09:48:39.599Z,139.45
2022-12-27T09:51:31.624Z,148.32
2022-12-27T09:54:29.488Z,140.65
2022-12-27T09:57:23.604Z,144.63
2022-12-27T10:00:15.116Z,143.35
2022-12-27T10:03:04.571Z,145.93
2022-12-27T10:05:56.628Z,157.07
2022-12-27T10:08:57.761Z,162.90
2022-12-27T10:12:05.990Z,161.77
2022-12-27T10:14:56.103Z,147.63
2022-12-27T10:18:06.896Z,144.07
2022-12-27T10:21:21.941Z,131.32
2022-12-27T10:24:24.312Z,130.05
2022-12-27T10:27:15.368Z,124.95
2022-12-27T10:30:01.693Z,138.02
2022-12-27T10:32:48.649Z,140.85
2022-12-27T10:35:34.679Z,144.75
2022-12-27T10:38:20.813Z,149.63
2022-12-27T10:41:22.191Z,149.75
2022-12-27T10:44:11.088Z,151.90
2022-12-27T10:46:57.267Z,158.45
2022-12-27T10:49:59.001Z,184.25
2022-12-27T10:52:44.886Z,191.95
2022-12-27T10:55:36.985Z,196.73
2022-12-27T10:58:26.021Z,225.13
2022-12-27T11:01:27.074Z,214.43
2022-12-27T11:04:22.657Z,219.88
2022-12-27T11:07:08.475Z,225.52
2022-12-27T11:10:06.078Z,247.80
2022-12-27T11:13:05.173Z,239.68
2022-12-27T11:15:58.771Z,246.32
2022-12-27T11:18:53.087Z,258.05
2022-12-27T11:21:40.663Z,257.85
2022-12-27T11:24:26.595Z,249.00
2022-12-27T11:27:22.688Z,258.05
2022-12-27T11:30:34.092Z,254.68
2022-12-27T11:33:25.396Z,272.52
2022-12-27T11:36:12.319Z,268.67
2022-12-27T11:39:00.761Z,266.65
2022-12-27T11:41:50.193Z,274.10
2022-12-27T11:44:43.109Z,267.83
2022-12-27T11:47:55.777Z,280.05
2022-12-27T11:50:56.620Z,281.33
2022-12-27T11:54:04.507Z,268.90
2022-12-27T11:57:19.367Z,264.63
2022-12-27T12:00:23.881Z,275.83
2022-12-27T12:03:34.464Z,289.15
2022-12-27T12:06:20.152Z,291.98
2022-12-27T12:09:49.789Z,289.30
2022-12-27T12:13:04.209Z,296.48
2022-12-27T12:16:05.725Z,308.58
2022-12-27T12:19:19.377Z,294.85
2022-12-27T12:22:56.438Z,271.10
2022-12-27T12:26:06.844Z,274.20
2022-12-27T12:29:08.020Z,237.38
2022-12-27T12:32:18.214Z,228.10
2022-12-27T12:35:19.679Z,223.18
2022-12-27T12:38:12.252Z,202.10
2022-12-27T12:41:20.122Z,169.75
2022-12-27T12:44:21.357Z,156.98
2022-12-27T12:47:25.702Z,146.95
2022-12-27T12:50:20.859Z,144.35
2022-12-27T12:53:24.540Z,153.68
2022-12-27T12:56:16.361Z,155.40
2022-12-27T12:59:30.598Z,152.77
2022-12-27T13:02:16.743Z,155.65
2022-12-27T13:05:35.886Z,157.23
2022-12-27T13:08:30.459Z,176.95
2022-12-27T13:11:29.478Z,174.00
2022-12-27T13:14:21.504Z,164.73
2022-12-27T13:17:21.435Z,161.50
2022-12-27T13:20:19.692Z,170.88
2022-12-27T13:23:31.042Z,158.82
2022-12-27T13:26:39.036Z,171.65
2022-12-27T13:29:48.427Z,160.52
2022-12-27T13:33:11.809Z,159.85
2022-12-27T13:36:21.339Z,157.65
2022-12-27T13:39:31.876Z,167.52
2022-12-27T13:43:00.652Z,142.82
2022-12-27T13:46:28.293Z,143.98
2022-12-27T13:49:22.642Z,124.90
2022-12-27T13:52:37.619Z,134.40
2022-12-27T13:55:51.720Z,137.38
2022-12-27T13:58:56.243Z,138.13
2022-12-27T14:02:03.596Z,123.72
2022-12-27T14:05:01.840Z,99.00
2022-12-27T14:08:06.521Z,63.97
2022-12-27T14:11:00.533Z,56.03
2022-12-27T14:13:47.666Z,56.90
2022-12-27T14:16:59.099Z,26.50
2022-12-27T14:20:33.231Z,25.48
2022-12-27T14:23:22.199Z,22.00
2022-12-27T14:26:39.299Z,13.50
2022-12-27T14:30:01.275Z,11.90
2022-12-27T14:32:51.946Z,13.23
2022-12-27T14:35:51.858Z,13.80
2022-12-27T14:38:54.001Z,12.02
2022-12-27T14:42:17.914Z,14.05
2022-12-27T14:45:41.526Z,13.55
2022-12-27T14:49:22.181Z,13.77
2022-12-27T14:52:33.642Z,14.88
2022-12-27T14:55:52.003Z,23.73
2022-12-27T14:58:37.785Z,39.22
2022-12-27T15:01:46.703Z,30.95
2022-12-27T15:04:44.572Z,23.13
2022-12-27T15:07:30.591Z,14.70
2022-12-27T15:10:39.790Z,19.20
2022-12-27T15:13:51.682Z,23.50
2022-12-27T15:17:08.214Z,19.60
2022-12-27T15:20:12.881Z,21.52
2022-12-27T15:23:17.518Z,14.73
2022-12-27T15:26:32.786Z,14.38
2022-12-27T15:29:38.582Z,15.27
2022-12-27T15:32:46.996Z,14.13
2022-12-27T15:35:41.248Z,12.73
2022-12-27T15:38:27.215Z,11.93
2022-12-27T15:41:51.075Z,13.05
2022-12-27T15:44:36.882Z,12.82
2022-12-27T15:47:47.631Z,10.82
2022-12-27T15:50:33.407Z,11.57
2022-12-27T15:53:41.044Z,12.27
2022-12-27T15:56:59.871Z,9.73
2022-12-27T15:59:54.144Z,11.27
2022-12-27T16:02:46.573Z,12.25
2022-12-27T16:05:46.840Z,18.70
2022-12-27T16:08:35.138Z,8.57
2022-12-27T16:11:58.988Z,9.35
2022-12-27T16:14:44.966Z,5.03
2022-12-27T16:17:54.147Z,7.20
2022-12-27T16:20:40.339Z,5.93
2022-12-27T16:23:29.344Z,6.03
2022-12-27T16:26:32.926Z,4.60
2022-12-27T16:29:28.124Z,5.97
2022-12-27T16:32:19.236Z,4.65
2022-12-27T16:35:14.311Z,4.18
2022-12-27T16:38:04.313Z,4.32
2022-12-27T16:40:53.908Z,5.18
2022-12-27T16:44:12.843Z,3.67
2022-12-27T16:47:04.743Z,3.80
2022-12-27T16:50:21.458Z,6.25
2022-12-27T16:53:37.423Z,14.98
2022-12-27T16:56:27.970Z,35.78
2022-12-27T16:59:51.323Z,16.30
2022-12-27T17:02:38.217Z,15.75
2022-12-27T17:05:36.488Z,15.35
2022-12-27T17:08:23.939Z,5.22
2022-12-27T17:11:26.643Z,7.63
2022-12-27T17:14:18.811Z,3.67
2022-12-27T17:17:14.815Z,5.57
2022-12-27T17:20:03.909Z,5.78
2022-12-27T17:22:53.672Z,6.07
2022-12-27T17:25:50.191Z,4.00
2022-12-27T17:28:44.597Z,5.80
2022-12-27T17:31:50.728Z,3.33
2022-12-27T17:34:55.873Z,2.97
2022-12-27T17:38:03.846Z,5.22
2022-12-27T17:41:18.095Z,4.07
2022-12-27T17:44:38.052Z,6.07
2022-12-27T17:47:33.399Z,7.00
2022-12-27T17:50:23.937Z,5.85
2022-12-27T17:53:28.343Z,4.93
2022-12-27T17:56:37.042Z,5.13
2022-12-27T17:59:24.946Z,5.53
2022-12-27T18:02:11.214Z,3.55
2022-12-27T18:04:57.872Z,7.03
2022-12-27T18:07:44.137Z,6.43
2022-12-27T18:10:30.892Z,6.25
2022-12-27T18:13:20.059Z,5.97
2022-12-27T18:16:18.343Z,5.63
2022-12-27T18:19:05.127Z,7.45
2022-12-27T18:21:56.457Z,12.80
2022-12-27T18:24:42.255Z,9.65
2022-12-27T18:27:28.258Z,11.70
2022-12-27T18:30:14.290Z,17.08
2022-12-27T18:33:00.977Z,17.45
2022-12-27T18:35:50.233Z,13.93
2022-12-27T18:38:41.887Z,10.75
2022-12-27T18:41:45.230Z,14.03
2022-12-27T18:47:29.701Z,33.92
2022-12-27T18:50:37.549Z,35.72
2022-12-27T19:35:42.985Z,7.32
2022-12-27T19:38:30.689Z,4.65
2022-12-27T19:41:16.568Z,5.75
2022-12-27T19:44:03.498Z,3.20
2022-12-27T19:46:49.187Z,5.90
2022-12-27T19:49:44.178Z,3.70
2022-12-27T19:52:30.471Z,5.70
2022-12-27T19:55:26.751Z,5.13
2022-12-27T19:58:24.431Z,4.63
2022-12-27T20:01:10.561Z,6.40
2022-12-27T20:03:56.394Z,5.43
2022-12-27T20:06:43.101Z,2.50
2022-12-27T20:09:29.445Z,5.75
2022-12-27T20:12:15.725Z,3.55
2022-12-27T20:15:01.827Z,4.47
2022-12-27T20:17:48.027Z,6.88
2022-12-27T20:20:34.095Z,3.88
2022-12-27T20:23:20.485Z,4.43
2022-12-27T21:40:59.268Z,5.25
2022-12-27T21:43:46.920Z,5.47
2022-12-27T21:46:38.416Z,5.60
2022-12-27T21:49:24.422Z,5.32
2022-12-27T21:52:10.293Z,8.10
2022-12-27T21:54:56.115Z,9.63
2022-12-27T21:57:42.064Z,7.45
2022-12-27T22:00:28.039Z,4.93
2022-12-27T22:03:13.930Z,4.63
2022-12-27T22:06:09.442Z,4.60
2022-12-27T22:08:58.870Z,3.33
2022-12-27T22:11:45.155Z,5.05
2022-12-27T22:14:36.689Z,5.70
2022-12-27T22:17:23.009Z,4.53
2022-12-27T22:20:10.085Z,4.18
2022-12-27T22:22:55.755Z,4.53
2022-12-27T22:25:45.029Z,3.47
2022-12-27T22:28:31.241Z,4.93
2022-12-27T22:31:20.757Z,5.68
2022-12-27T22:34:06.976Z,8.30
2022-12-27T22:36:53.027Z,7.18
2022-12-27T22:39:38.836Z,4.85
2022-12-27T22:42:24.603Z,5.97
2022-12-27T22:45:10.919Z,5.30
2022-12-27T22:47:56.878Z,6.00
2022-12-27T22:50:42.980Z,5.00
2022-12-27T22:53:29.488Z,5.70
2022-12-27T22:56:18.955Z,3.85
2022-12-27T22:59:09.552Z,4.75
2022-12-27T23:01:55.629Z,4.90
2022-12-27T23:04:41.540Z,5.68
2022-12-27T23:08:04.382Z,3.50
2022-12-27T23:10:33.344Z,4.90
2022-12-27T23:13:22.353Z,6.45
2022-12-27T23:16:09.035Z,3.85
2022-12-27T23:18:55.179Z,5.97
2022-12-27T23:21:41.914Z,6.47
2022-12-27T23:24:27.647Z,5.32
2022-12-27T23:27:13.706Z,4.90
2022-12-27T23:29:59.542Z,5.57
2022-12-27T23:32:45.323Z,6.90
2022-12-27T23:35:31.124Z,3.83
2022-12-27T23:38:16.972Z,4.03
2022-12-27T23:41:04.804Z,4.82
2022-12-27T23:43:53.715Z,5.30
2022-12-27T23:46:41.541Z,5.68
2022-12-27T23:49:27.710Z,9.52
2022-12-27T23:52:13.638Z,10.88
2022-12-27T23:54:59.569Z,9.50
2022-12-27T23:57:45.563Z,8.50
